Decoded Metar for MGMT ( in _UNIDENTIFIED) (IATA:N/A) | Meteo·Mobile Aviation Weather
aviador You're here:

MGMT Decoded Metar

in _UNIDENTIFIED
Report Time2018-10-16 00:00:00
UTC Time2018-10-16 01:09:33
Flight Rules Old
WindCalm
Visibility8000 m
Phenomena:Light Drizzle
Clouds:Scattered 018 Hf
Broken 080 Hf
Expected CloudBase > 800 ft AGL from Temp-Dew spread
Ceiling8,000 ft
Temp26°C
Dew Point24°C (89% RH)
QNH1007 hPa
Raw Report
METAR MGMT 160000Z 00000KT 8000 -DZ SCT018 BKN080 26/24 Q1007=

Extra information for MGMT:More info

Metar Taf Metar & Taf Last 4 Metars F.Rules Stats Wind Profile Meteogram Temp Stats Metar ALERT Operation Metar Decoded Social comments